Time,TemperatureF,DewpointF,PressureIn,WindDirection,WindDirectionDegrees,WindSpeedMPH,WindSpeedGustMPH,Humidity,HourlyPrecipIn,Conditions,Clouds,dailyrainin,SoftwareType,DateUTC
2013-03-29 00:10:00,32.4,25.7,30.09,ESE,112,0.0,-999.0,76,-99.99,,,0.00,Acu-Link.com,2013-03-29 04:10:00,
2013-03-29 00:25:00,32.4,26.0,30.10,SSW,202,0.0,-999.0,77,-99.99,,,0.00,Acu-Link.com,2013-03-29 04:25:00,
2013-03-29 00:40:00,31.6,26.5,30.09,South,180,0.0,-999.0,81,-99.99,,,0.00,Acu-Link.com,2013-03-29 04:40:00,
2013-03-29 01:11:00,31.8,26.6,30.09,South,180,0.0,-999.0,81,-99.99,,,0.00,Acu-Link.com,2013-03-29 05:11:00,
2013-03-29 01:26:00,30.4,25.9,30.10,WSW,247,0.0,-999.0,83,-99.99,,,0.00,Acu-Link.com,2013-03-29 05:26:00,
2013-03-29 01:42:00,30.4,25.9,30.09,WSW,247,0.0,-999.0,83,-99.99,,,0.00,Acu-Link.com,2013-03-29 05:42:00,
2013-03-29 01:57:00,31.8,26.3,30.09,South,180,0.0,-999.0,80,-99.99,,,0.00,Acu-Link.com,2013-03-29 05:57:00,
2013-03-29 02:12:00,31.3,26.2,30.09,South,180,0.0,-999.0,81,-99.99,,,0.00,Acu-Link.com,2013-03-29 06:12:00,
2013-03-29 02:27:00,30.4,26.2,30.09,South,180,0.0,-999.0,84,-99.99,,,0.00,Acu-Link.com,2013-03-29 06:27:00,
2013-03-29 02:43:00,30.9,25.8,30.09,SSW,202,0.0,-999.0,81,-99.99,,,0.00,Acu-Link.com,2013-03-29 06:43:00,
2013-03-29 02:58:00,30.9,25.2,30.09,SSW,202,0.0,-999.0,79,-99.99,,,0.00,Acu-Link.com,2013-03-29 06:58:00,
2013-03-29 03:13:00,31.5,25.8,30.09,SSW,202,0.0,-999.0,79,-99.99,,,0.00,Acu-Link.com,2013-03-29 07:13:00,
2013-03-29 03:29:00,29.8,24.7,30.08,WSW,247,0.0,-999.0,81,-99.99,,,0.00,Acu-Link.com,2013-03-29 07:29:00,
2013-03-29 03:44:00,29.8,25.3,30.08,WSW,247,0.0,-999.0,83,-99.99,,,0.00,Acu-Link.com,2013-03-29 07:44:00,
2013-03-29 03:59:00,29.7,24.9,30.08,SSW,202,0.0,-999.0,82,-99.99,,,0.00,Acu-Link.com,2013-03-29 07:59:00,
2013-03-29 04:15:00,29.5,25.0,30.08,SSW,202,0.0,-999.0,83,-99.99,,,0.00,Acu-Link.com,2013-03-29 08:15:00,
2013-03-29 04:30:00,29.5,25.0,30.08,SSW,202,0.0,-999.0,83,-99.99,,,0.00,Acu-Link.com,2013-03-29 08:30:00,
2013-03-29 04:45:00,28.9,24.7,30.08,SW,225,0.0,-999.0,84,-99.99,,,0.00,Acu-Link.com,2013-03-29 08:45:00,
2013-03-29 05:00:00,28.4,24.5,30.08,SW,225,0.0,-999.0,85,-99.99,,,0.00,Acu-Link.com,2013-03-29 09:00:00,
2013-03-29 05:15:00,29.5,25.6,30.07,South,180,0.0,-999.0,85,-99.99,,,0.00,Acu-Link.com,2013-03-29 09:15:00,
2013-03-29 05:30:00,28.8,25.4,30.07,SSW,202,0.0,-999.0,87,-99.99,,,0.00,Acu-Link.com,2013-03-29 09:30:00,
2013-03-29 05:46:00,28.6,25.5,30.07,SE,135,0.0,-999.0,88,-99.99,,,0.00,Acu-Link.com,2013-03-29 09:46:00,
2013-03-29 06:01:00,28.2,24.8,30.07,West,270,0.0,-999.0,87,-99.99,,,0.00,Acu-Link.com,2013-03-29 10:01:00,
2013-03-29 06:16:00,28.0,24.6,30.07,South,180,0.0,-999.0,87,-99.99,,,0.00,Acu-Link.com,2013-03-29 10:16:00,
2013-03-29 06:32:00,28.0,25.2,30.08,South,180,0.0,-999.0,89,-99.99,,,0.00,Acu-Link.com,2013-03-29 10:32:00,
2013-03-29 06:47:00,27.9,25.1,30.08,West,270,0.0,-999.0,89,-99.99,,,0.00,Acu-Link.com,2013-03-29 10:47:00,
2013-03-29 07:02:00,28.6,25.8,30.09,East,90,0.0,-999.0,89,-99.99,,,0.00,Acu-Link.com,2013-03-29 11:02:00,
2013-03-29 07:18:00,29.5,26.1,30.08,SSW,202,0.0,-999.0,87,-99.99,,,0.00,Acu-Link.com,2013-03-29 11:18:00,
2013-03-29 07:33:00,29.8,26.1,30.08,South,180,0.0,-999.0,86,-99.99,,,0.00,Acu-Link.com,2013-03-29 11:33:00,
2013-03-29 07:48:00,29.7,26.0,30.09,SW,225,0.0,-999.0,86,-99.99,,,0.00,Acu-Link.com,2013-03-29 11:48:00,
2013-03-29 08:04:00,31.8,27.2,30.09,SSE,157,0.0,-999.0,83,-99.99,,,0.00,Acu-Link.com,2013-03-29 12:04:00,
2013-03-29 08:19:00,33.8,27.7,30.09,SSE,157,1.1,-999.0,78,-99.99,,,0.00,Acu-Link.com,2013-03-29 12:19:00,
2013-03-29 08:34:00,34.7,28.2,30.09,SSE,157,0.0,-999.0,77,-99.99,,,0.00,Acu-Link.com,2013-03-29 12:34:00,
2013-03-29 08:50:00,36.5,28.3,30.10,SSE,157,1.7,-999.0,72,-99.99,,,0.00,Acu-Link.com,2013-03-29 12:50:00,
2013-03-29 09:05:00,37.8,28.6,30.10,SE,135,1.1,-999.0,69,-99.99,,,0.00,Acu-Link.com,2013-03-29 13:05:00,
2013-03-29 09:20:00,39.7,29.7,30.10,SSW,202,2.2,-999.0,67,-99.99,,,0.00,Acu-Link.com,2013-03-29 13:20:00,
2013-03-29 09:35:00,41.2,30.0,30.10,South,180,2.2,-999.0,64,-99.99,,,0.00,Acu-Link.com,2013-03-29 13:35:00,
2013-03-29 09:50:00,42.3,30.2,30.10,South,180,3.2,-999.0,62,-99.99,,,0.00,Acu-Link.com,2013-03-29 13:50:00,
2013-03-29 10:36:00,47.1,30.4,30.10,SSE,157,2.7,-999.0,52,-99.99,,,0.00,Acu-Link.com,2013-03-29 14:36:00,
2013-03-29 11:07:00,49.1,31.3,30.10,WSW,247,4.7,-999.0,50,-99.99,,,0.00,Acu-Link.com,2013-03-29 15:07:00,
2013-03-29 11:22:00,50.2,29.7,30.10,SW,225,3.7,-999.0,45,-99.99,,,0.00,Acu-Link.com,2013-03-29 15:22:00,
2013-03-29 11:37:00,51.3,29.6,30.09,South,180,3.7,-999.0,43,-99.99,,,0.00,Acu-Link.com,2013-03-29 15:37:00,
2013-03-29 11:53:00,52.3,28.7,30.09,SE,135,3.2,-999.0,40,-99.99,,,0.00,Acu-Link.com,2013-03-29 15:53:00,
2013-03-29 12:08:00,52.9,29.2,30.08,SSW,202,4.7,-999.0,40,-99.99,,,0.00,Acu-Link.com,2013-03-29 16:08:00,
2013-03-29 12:23:00,54.0,29.6,30.08,SSE,157,4.2,-999.0,39,-99.99,,,0.00,Acu-Link.com,2013-03-29 16:23:00,
2013-03-29 12:38:00,54.0,30.2,30.08,West,270,2.2,-999.0,40,-99.99,,,0.00,Acu-Link.com,2013-03-29 16:38:00,
2013-03-29 12:53:00,55.8,32.5,30.07,West,270,4.2,-999.0,41,-99.99,,,0.00,Acu-Link.com,2013-03-29 16:53:00,
2013-03-29 13:09:00,55.8,31.2,30.06,SSW,202,4.7,-999.0,39,-99.99,,,0.00,Acu-Link.com,2013-03-29 17:09:00,
2013-03-29 13:24:00,55.4,30.9,30.06,West,270,3.7,-999.0,39,-99.99,,,0.00,Acu-Link.com,2013-03-29 17:24:00,
2013-03-29 13:39:00,56.5,30.5,30.05,WSW,247,4.2,-999.0,37,-99.99,,,0.00,Acu-Link.com,2013-03-29 17:39:00,
2013-03-29 13:55:00,54.7,30.2,30.04,SW,225,4.2,-999.0,39,-99.99,,,0.00,Acu-Link.com,2013-03-29 17:55:00,
2013-03-29 14:10:00,55.8,31.2,30.04,West,270,6.8,-999.0,39,-99.99,,,0.00,Acu-Link.com,2013-03-29 18:10:00,
2013-03-29 14:25:00,56.5,31.2,30.03,West,270,4.7,-999.0,38,-99.99,,,0.00,Acu-Link.com,2013-03-29 18:25:00,
2013-03-29 14:40:00,55.8,31.2,30.03,West,270,1.7,-999.0,39,-99.99,,,0.00,Acu-Link.com,2013-03-29 18:40:00,
2013-03-29 14:56:00,55.4,29.6,30.02,SSE,157,4.2,-999.0,37,-99.99,,,0.00,Acu-Link.com,2013-03-29 18:56:00,
2013-03-29 15:11:00,57.0,32.3,30.02,WSW,247,7.3,-999.0,39,-99.99,,,0.00,Acu-Link.com,2013-03-29 19:11:00,
2013-03-29 15:41:00,55.6,31.0,30.01,SSW,202,3.7,-999.0,39,-99.99,,,0.00,Acu-Link.com,2013-03-29 19:41:00,
2013-03-29 15:56:00,56.3,31.0,30.01,WNW,292,4.7,-999.0,38,-99.99,,,0.00,Acu-Link.com,2013-03-29 19:56:00,
2013-03-29 16:12:00,56.5,32.5,30.00,SW,225,6.3,-999.0,40,-99.99,,,0.00,Acu-Link.com,2013-03-29 20:12:00,
2013-03-29 16:42:00,55.6,34.6,30.00,SSW,202,5.3,-999.0,45,-99.99,,,0.00,Acu-Link.com,2013-03-29 20:42:00,
2013-03-29 16:58:00,54.5,37.7,29.99,West,270,4.2,-999.0,53,-99.99,,,0.00,Acu-Link.com,2013-03-29 20:58:00,
2013-03-29 17:13:00,54.0,37.7,29.99,West,270,3.2,-999.0,54,-99.99,,,0.00,Acu-Link.com,2013-03-29 21:13:00,
2013-03-29 17:28:00,54.3,37.1,29.99,West,270,3.2,-999.0,52,-99.99,,,0.00,Acu-Link.com,2013-03-29 21:28:00,
2013-03-29 17:43:00,53.1,37.8,29.98,SW,225,5.3,-999.0,56,-99.99,,,0.00,Acu-Link.com,2013-03-29 21:43:00,
2013-03-29 17:58:00,52.9,37.2,29.98,West,270,5.8,-999.0,55,-99.99,,,0.00,Acu-Link.com,2013-03-29 21:58:00,
2013-03-29 18:14:00,53.4,38.1,29.99,West,270,5.3,-999.0,56,-99.99,,,0.00,Acu-Link.com,2013-03-29 22:14:00,
2013-03-29 18:29:00,53.6,37.8,29.99,West,270,4.7,-999.0,55,-99.99,,,0.00,Acu-Link.com,2013-03-29 22:29:00,
2013-03-29 18:44:00,52.2,38.3,29.99,South,180,4.7,-999.0,59,-99.99,,,0.00,Acu-Link.com,2013-03-29 22:44:00,
2013-03-29 18:59:00,50.9,38.8,29.99,South,180,2.2,-999.0,63,-99.99,,,0.00,Acu-Link.com,2013-03-29 22:59:00,
2013-03-29 19:15:00,49.8,38.9,29.99,West,270,5.3,-999.0,66,-99.99,,,0.00,Acu-Link.com,2013-03-29 23:15:00,
2013-03-29 19:30:00,49.5,38.6,29.99,South,180,2.7,-999.0,66,-99.99,,,0.00,Acu-Link.com,2013-03-29 23:30:00,
2013-03-29 19:45:00,48.9,38.4,29.99,South,180,4.7,-999.0,67,-99.99,,,0.00,Acu-Link.com,2013-03-29 23:45:00,
2013-03-29 20:00:00,48.2,38.5,29.99,South,180,3.7,-999.0,69,-99.99,,,0.00,Acu-Link.com,2013-03-30 00:00:00,
2013-03-29 20:15:00,47.5,38.9,30.00,WSW,247,4.2,-999.0,72,-99.99,,,0.00,Acu-Link.com,2013-03-30 00:15:00,
2013-03-29 20:31:00,47.3,39.4,29.99,WSW,247,2.7,-999.0,74,-99.99,,,0.00,Acu-Link.com,2013-03-30 00:31:00,
2013-03-29 20:46:00,46.9,39.4,29.99,South,180,4.2,-999.0,75,-99.99,,,0.00,Acu-Link.com,2013-03-30 00:46:00,
2013-03-29 21:16:00,45.3,39.2,30.00,WSW,247,1.7,-999.0,79,-99.99,,,0.00,Acu-Link.com,2013-03-30 01:16:00,
2013-03-29 21:32:00,44.2,39.1,30.00,South,180,2.7,-999.0,82,-99.99,,,0.00,Acu-Link.com,2013-03-30 01:32:00,
2013-03-29 21:47:00,43.5,39.0,30.01,SW,225,2.2,-999.0,84,-99.99,,,0.00,Acu-Link.com,2013-03-30 01:47:00,
2013-03-29 22:02:00,43.3,39.1,30.01,South,180,2.2,-999.0,85,-99.99,,,0.00,Acu-Link.com,2013-03-30 02:02:00,
2013-03-29 22:17:00,42.8,38.9,30.02,SSW,202,1.7,-999.0,86,-99.99,,,0.00,Acu-Link.com,2013-03-30 02:17:00,
2013-03-29 22:33:00,41.9,38.6,30.02,SSW,202,1.7,-999.0,88,-99.99,,,0.00,Acu-Link.com,2013-03-30 02:33:00,
2013-03-29 22:48:00,41.9,38.9,30.02,SE,135,2.7,-999.0,89,-99.99,,,0.00,Acu-Link.com,2013-03-30 02:48:00,
2013-03-29 23:03:00,41.0,38.3,30.02,SSW,202,0.0,-999.0,90,-99.99,,,0.00,Acu-Link.com,2013-03-30 03:03:00,
2013-03-29 23:18:00,39.9,37.2,30.02,SSW,202,0.0,-999.0,90,-99.99,,,0.00,Acu-Link.com,2013-03-30 03:18:00,
2013-03-29 23:33:00,40.1,38.2,30.02,SSW,202,0.0,-999.0,93,-99.99,,,0.00,Acu-Link.com,2013-03-30 03:33:00,
2013-03-29 23:49:00,39.7,38.1,30.01,SSW,202,0.0,-999.0,94,-99.99,,,0.00,Acu-Link.com,2013-03-30 03:49:00,